sensor_id;sensor_type;location;lat;lon;timestamp;temperature;humidity
796;DHT22;381;48.770;9.188;2022-08-02T00:04:42;22.30;94.60
796;DHT22;381;48.770;9.188;2022-08-02T00:09:44;22.30;94.80
796;DHT22;381;48.770;9.188;2022-08-02T00:14:46;22.30;95.10
796;DHT22;381;48.770;9.188;2022-08-02T00:19:49;22.30;95.50
796;DHT22;381;48.770;9.188;2022-08-02T00:24:52;22.40;95.60
796;DHT22;381;48.770;9.188;2022-08-02T00:29:54;22.40;95.80
796;DHT22;381;48.770;9.188;2022-08-02T00:34:57;22.40;95.90
796;DHT22;381;48.770;9.188;2022-08-02T00:39:59;22.40;95.70
796;DHT22;381;48.770;9.188;2022-08-02T00:45:03;22.40;95.90
796;DHT22;381;48.770;9.188;2022-08-02T00:50:07;22.30;95.90
796;DHT22;381;48.770;9.188;2022-08-02T00:55:09;22.30;96.10
796;DHT22;381;48.770;9.188;2022-08-02T01:00:12;22.20;96.20
796;DHT22;381;48.770;9.188;2022-08-02T01:05:16;22.20;96.40
796;DHT22;381;48.770;9.188;2022-08-02T01:10:18;22.20;96.50
796;DHT22;381;48.770;9.188;2022-08-02T01:15:21;22.20;96.70
796;DHT22;381;48.770;9.188;2022-08-02T01:20:40;22.20;96.40
796;DHT22;381;48.770;9.188;2022-08-02T01:26:00;22.20;96.70
796;DHT22;381;48.770;9.188;2022-08-02T01:31:11;22.20;96.20
796;DHT22;381;48.770;9.188;2022-08-02T01:36:17;22.20;96.10
796;DHT22;381;48.770;9.188;2022-08-02T01:41:23;22.20;96.00
796;DHT22;381;48.770;9.188;2022-08-02T01:46:29;22.10;95.80
796;DHT22;381;48.770;9.188;2022-08-02T01:51:33;22.10;95.90
796;DHT22;381;48.770;9.188;2022-08-02T01:56:54;22.10;95.60
796;DHT22;381;48.770;9.188;2022-08-02T02:01:59;22.10;95.60
796;DHT22;381;48.770;9.188;2022-08-02T02:07:02;22.10;96.10
796;DHT22;381;48.770;9.188;2022-08-02T02:12:06;22.10;95.70
796;DHT22;381;48.770;9.188;2022-08-02T02:17:11;22.20;96.20
796;DHT22;381;48.770;9.188;2022-08-02T02:22:14;22.10;95.90
796;DHT22;381;48.770;9.188;2022-08-02T02:27:16;22.20;95.60
796;DHT22;381;48.770;9.188;2022-08-02T02:32:22;22.10;95.50
796;DHT22;381;48.770;9.188;2022-08-02T02:37:27;22.10;95.70
796;DHT22;381;48.770;9.188;2022-08-02T02:42:31;22.00;95.70
796;DHT22;381;48.770;9.188;2022-08-02T02:47:36;22.00;95.90
796;DHT22;381;48.770;9.188;2022-08-02T02:52:39;22.00;95.60
796;DHT22;381;48.770;9.188;2022-08-02T02:57:41;21.90;95.70
796;DHT22;381;48.770;9.188;2022-08-02T03:02:46;21.90;95.60
796;DHT22;381;48.770;9.188;2022-08-02T03:07:48;21.90;95.50
796;DHT22;381;48.770;9.188;2022-08-02T03:12:50;21.80;95.50
796;DHT22;381;48.770;9.188;2022-08-02T03:17:54;21.80;95.20
796;DHT22;381;48.770;9.188;2022-08-02T03:22:56;21.70;95.10
796;DHT22;381;48.770;9.188;2022-08-02T03:27:58;21.70;95.30
796;DHT22;381;48.770;9.188;2022-08-02T03:33:01;21.60;95.20
796;DHT22;381;48.770;9.188;2022-08-02T03:38:04;21.60;95.60
796;DHT22;381;48.770;9.188;2022-08-02T03:43:07;21.50;95.40
796;DHT22;381;48.770;9.188;2022-08-02T03:48:12;21.50;95.00
796;DHT22;381;48.770;9.188;2022-08-02T03:53:15;21.40;95.40
796;DHT22;381;48.770;9.188;2022-08-02T03:58:18;21.30;95.40
796;DHT22;381;48.770;9.188;2022-08-02T04:03:22;21.30;95.60
796;DHT22;381;48.770;9.188;2022-08-02T04:08:24;21.20;95.30
796;DHT22;381;48.770;9.188;2022-08-02T04:13:28;21.20;95.60
796;DHT22;381;48.770;9.188;2022-08-02T04:18:38;21.20;95.90
796;DHT22;381;48.770;9.188;2022-08-02T04:23:41;21.20;95.80
796;DHT22;381;48.770;9.188;2022-08-02T04:28:45;21.20;95.80
796;DHT22;381;48.770;9.188;2022-08-02T04:33:49;21.20;95.90
796;DHT22;381;48.770;9.188;2022-08-02T04:38:53;21.20;96.00
796;DHT22;381;48.770;9.188;2022-08-02T04:43:55;21.20;95.80
796;DHT22;381;48.770;9.188;2022-08-02T04:48:59;21.20;96.00
796;DHT22;381;48.770;9.188;2022-08-02T04:54:01;21.20;96.20
796;DHT22;381;48.770;9.188;2022-08-02T04:59:03;21.20;96.50
796;DHT22;381;48.770;9.188;2022-08-02T05:04:07;21.30;96.20
796;DHT22;381;48.770;9.188;2022-08-02T05:09:09;21.30;96.50
796;DHT22;381;48.770;9.188;2022-08-02T05:14:11;21.40;96.60
796;DHT22;381;48.770;9.188;2022-08-02T05:19:14;21.50;96.40
796;DHT22;381;48.770;9.188;2022-08-02T05:24:16;21.70;96.50
796;DHT22;381;48.770;9.188;2022-08-02T05:29:18;21.80;96.50
796;DHT22;381;48.770;9.188;2022-08-02T05:34:22;21.90;95.80
796;DHT22;381;48.770;9.188;2022-08-02T05:39:25;22.10;96.10
796;DHT22;381;48.770;9.188;2022-08-02T05:44:27;22.10;96.10
796;DHT22;381;48.770;9.188;2022-08-02T05:49:30;22.20;95.50
796;DHT22;381;48.770;9.188;2022-08-02T05:54:36;22.20;95.50
796;DHT22;381;48.770;9.188;2022-08-02T05:59:52;22.20;95.10
796;DHT22;381;48.770;9.188;2022-08-02T06:05:04;22.30;94.70
796;DHT22;381;48.770;9.188;2022-08-02T06:10:08;22.30;94.30
796;DHT22;381;48.770;9.188;2022-08-02T06:15:15;22.30;94.50
796;DHT22;381;48.770;9.188;2022-08-02T06:20:19;22.30;94.20
796;DHT22;381;48.770;9.188;2022-08-02T06:25:22;22.40;93.80
796;DHT22;381;48.770;9.188;2022-08-02T06:30:24;22.50;93.10
796;DHT22;381;48.770;9.188;2022-08-02T06:35:33;22.70;93.80
796;DHT22;381;48.770;9.188;2022-08-02T06:40:42;22.80;93.00
796;DHT22;381;48.770;9.188;2022-08-02T06:45:44;22.90;92.90
796;DHT22;381;48.770;9.188;2022-08-02T06:50:48;23.10;92.80
796;DHT22;381;48.770;9.188;2022-08-02T06:55:50;23.20;92.70
796;DHT22;381;48.770;9.188;2022-08-02T07:00:52;23.30;92.60
796;DHT22;381;48.770;9.188;2022-08-02T07:05:56;23.30;92.30
796;DHT22;381;48.770;9.188;2022-08-02T07:10:58;23.40;92.60
796;DHT22;381;48.770;9.188;2022-08-02T07:16:01;23.50;91.90
796;DHT22;381;48.770;9.188;2022-08-02T07:21:04;23.60;91.80
796;DHT22;381;48.770;9.188;2022-08-02T07:26:07;23.90;91.80
796;DHT22;381;48.770;9.188;2022-08-02T07:31:09;24.20;91.20
796;DHT22;381;48.770;9.188;2022-08-02T07:36:12;24.60;89.90
796;DHT22;381;48.770;9.188;2022-08-02T07:41:14;25.00;90.10
796;DHT22;381;48.770;9.188;2022-08-02T07:46:16;25.40;89.60
796;DHT22;381;48.770;9.188;2022-08-02T07:51:20;25.70;87.90
796;DHT22;381;48.770;9.188;2022-08-02T07:56:22;26.00;87.80
796;DHT22;381;48.770;9.188;2022-08-02T08:01:24;26.20;85.30
796;DHT22;381;48.770;9.188;2022-08-02T08:06:28;26.40;84.50
796;DHT22;381;48.770;9.188;2022-08-02T08:11:30;26.70;84.20
796;DHT22;381;48.770;9.188;2022-08-02T08:16:32;27.00;84.10
796;DHT22;381;48.770;9.188;2022-08-02T08:21:36;27.40;83.10
796;DHT22;381;48.770;9.188;2022-08-02T08:26:38;27.80;81.60
796;DHT22;381;48.770;9.188;2022-08-02T08:31:40;28.10;79.60
796;DHT22;381;48.770;9.188;2022-08-02T08:36:44;28.50;79.40
796;DHT22;381;48.770;9.188;2022-08-02T08:41:46;28.80;77.40
796;DHT22;381;48.770;9.188;2022-08-02T08:46:49;29.00;77.50
796;DHT22;381;48.770;9.188;2022-08-02T08:51:54;29.30;76.10
796;DHT22;381;48.770;9.188;2022-08-02T08:56:58;29.60;73.20
796;DHT22;381;48.770;9.188;2022-08-02T09:02:01;29.80;73.30
796;DHT22;381;48.770;9.188;2022-08-02T09:07:04;29.90;71.50
796;DHT22;381;48.770;9.188;2022-08-02T09:12:13;30.00;72.80
796;DHT22;381;48.770;9.188;2022-08-02T09:17:15;30.00;71.20
796;DHT22;381;48.770;9.188;2022-08-02T09:22:19;30.10;70.90
796;DHT22;381;48.770;9.188;2022-08-02T09:27:22;30.10;69.40
796;DHT22;381;48.770;9.188;2022-08-02T09:32:24;30.00;69.60
796;DHT22;381;48.770;9.188;2022-08-02T09:37:30;30.20;68.10
796;DHT22;381;48.770;9.188;2022-08-02T09:42:32;30.30;69.00
796;DHT22;381;48.770;9.188;2022-08-02T09:47:35;30.70;69.20
796;DHT22;381;48.770;9.188;2022-08-02T09:52:38;31.20;67.90
796;DHT22;381;48.770;9.188;2022-08-02T09:57:44;31.60;67.20
796;DHT22;381;48.770;9.188;2022-08-02T10:03:04;32.00;65.80
796;DHT22;381;48.770;9.188;2022-08-02T10:08:08;32.20;65.00
796;DHT22;381;48.770;9.188;2022-08-02T10:13:11;31.80;64.70
796;DHT22;381;48.770;9.188;2022-08-02T10:18:13;31.30;64.20
796;DHT22;381;48.770;9.188;2022-08-02T10:23:19;31.00;64.90
796;DHT22;381;48.770;9.188;2022-08-02T10:28:26;30.70;65.30
796;DHT22;381;48.770;9.188;2022-08-02T10:33:32;30.20;65.40
796;DHT22;381;48.770;9.188;2022-08-02T10:38:37;29.70;66.70
796;DHT22;381;48.770;9.188;2022-08-02T10:43:45;29.30;66.00
796;DHT22;381;48.770;9.188;2022-08-02T10:49:06;28.90;68.00
796;DHT22;381;48.770;9.188;2022-08-02T10:54:10;28.60;68.60
796;DHT22;381;48.770;9.188;2022-08-02T10:59:23;28.40;68.00
796;DHT22;381;48.770;9.188;2022-08-02T11:04:30;28.20;69.40
796;DHT22;381;48.770;9.188;2022-08-02T11:09:34;28.10;71.80
796;DHT22;381;48.770;9.188;2022-08-02T11:14:37;28.10;71.30
796;DHT22;381;48.770;9.188;2022-08-02T11:20:17;28.30;71.20
796;DHT22;381;48.770;9.188;2022-08-02T11:25:34;28.40;70.10
796;DHT22;381;48.770;9.188;2022-08-02T11:30:36;28.60;69.00
796;DHT22;381;48.770;9.188;2022-08-02T11:35:39;28.50;68.50
796;DHT22;381;48.770;9.188;2022-08-02T11:40:43;28.50;67.90
796;DHT22;381;48.770;9.188;2022-08-02T11:45:45;28.40;67.80
796;DHT22;381;48.770;9.188;2022-08-02T11:51:00;28.30;68.20
796;DHT22;381;48.770;9.188;2022-08-02T11:56:04;28.20;68.50
796;DHT22;381;48.770;9.188;2022-08-02T12:01:07;28.00;68.80
796;DHT22;381;48.770;9.188;2022-08-02T12:06:09;27.80;68.70
796;DHT22;381;48.770;9.188;2022-08-02T12:11:17;27.80;68.70
796;DHT22;381;48.770;9.188;2022-08-02T12:16:20;27.70;70.60
796;DHT22;381;48.770;9.188;2022-08-02T12:21:40;27.70;73.50
796;DHT22;381;48.770;9.188;2022-08-02T12:26:44;27.80;71.00
796;DHT22;381;48.770;9.188;2022-08-02T12:31:47;27.80;71.10
796;DHT22;381;48.770;9.188;2022-08-02T12:37:00;27.90;69.70
796;DHT22;381;48.770;9.188;2022-08-02T12:42:04;28.00;71.40
796;DHT22;381;48.770;9.188;2022-08-02T12:47:08;28.00;70.10
796;DHT22;381;48.770;9.188;2022-08-02T12:52:20;28.00;69.40
796;DHT22;381;48.770;9.188;2022-08-02T12:57:24;27.90;69.40
796;DHT22;381;48.770;9.188;2022-08-02T13:02:26;27.90;67.90
796;DHT22;381;48.770;9.188;2022-08-02T13:07:28;27.90;69.20
796;DHT22;381;48.770;9.188;2022-08-02T13:12:32;27.80;69.40
796;DHT22;381;48.770;9.188;2022-08-02T13:17:35;27.80;67.80
796;DHT22;381;48.770;9.188;2022-08-02T13:22:38;27.80;66.10
796;DHT22;381;48.770;9.188;2022-08-02T13:27:41;27.90;66.30
796;DHT22;381;48.770;9.188;2022-08-02T13:32:43;27.80;71.70
796;DHT22;381;48.770;9.188;2022-08-02T13:37:45;27.80;69.90
796;DHT22;381;48.770;9.188;2022-08-02T13:42:49;27.90;66.50
796;DHT22;381;48.770;9.188;2022-08-02T13:47:52;27.90;66.00
796;DHT22;381;48.770;9.188;2022-08-02T13:52:54;27.90;65.20
796;DHT22;381;48.770;9.188;2022-08-02T13:57:57;28.00;66.10
796;DHT22;381;48.770;9.188;2022-08-02T14:02:59;28.00;68.50
796;DHT22;381;48.770;9.188;2022-08-02T14:08:02;28.10;69.50
796;DHT22;381;48.770;9.188;2022-08-02T14:13:05;28.20;67.60
796;DHT22;381;48.770;9.188;2022-08-02T14:18:08;28.30;63.50
796;DHT22;381;48.770;9.188;2022-08-02T14:23:10;28.50;63.10
796;DHT22;381;48.770;9.188;2022-08-02T14:28:14;28.60;65.10
796;DHT22;381;48.770;9.188;2022-08-02T14:33:16;28.60;62.80
796;DHT22;381;48.770;9.188;2022-08-02T14:38:19;28.60;63.00
796;DHT22;381;48.770;9.188;2022-08-02T14:43:23;28.50;64.50
796;DHT22;381;48.770;9.188;2022-08-02T14:48:42;28.50;62.70
796;DHT22;381;48.770;9.188;2022-08-02T14:53:44;28.40;65.00
796;DHT22;381;48.770;9.188;2022-08-02T14:58:48;28.20;64.20
796;DHT22;381;48.770;9.188;2022-08-02T15:03:50;28.00;64.20
796;DHT22;381;48.770;9.188;2022-08-02T15:08:52;27.90;66.00
796;DHT22;381;48.770;9.188;2022-08-02T15:13:55;27.80;69.10
796;DHT22;381;48.770;9.188;2022-08-02T15:18:59;27.60;69.90
796;DHT22;381;48.770;9.188;2022-08-02T15:24:01;27.50;68.60
796;DHT22;381;48.770;9.188;2022-08-02T15:29:05;27.50;66.60
796;DHT22;381;48.770;9.188;2022-08-02T15:34:07;27.50;65.20
796;DHT22;381;48.770;9.188;2022-08-02T15:39:09;27.60;61.10
796;DHT22;381;48.770;9.188;2022-08-02T15:44:13;27.60;68.20
796;DHT22;381;48.770;9.188;2022-08-02T15:49:15;27.60;69.10
796;DHT22;381;48.770;9.188;2022-08-02T15:54:17;27.50;66.10
796;DHT22;381;48.770;9.188;2022-08-02T15:59:21;27.50;65.80
796;DHT22;381;48.770;9.188;2022-08-02T16:04:23;27.50;62.70
796;DHT22;381;48.770;9.188;2022-08-02T16:09:25;27.50;63.20
796;DHT22;381;48.770;9.188;2022-08-02T16:14:28;27.50;65.00
796;DHT22;381;48.770;9.188;2022-08-02T16:19:31;27.50;62.50
796;DHT22;381;48.770;9.188;2022-08-02T16:24:34;27.50;63.80
796;DHT22;381;48.770;9.188;2022-08-02T16:29:37;27.40;60.80
796;DHT22;381;48.770;9.188;2022-08-02T16:34:40;27.50;65.80
796;DHT22;381;48.770;9.188;2022-08-02T16:39:42;27.40;64.30
796;DHT22;381;48.770;9.188;2022-08-02T16:44:45;27.40;64.00
796;DHT22;381;48.770;9.188;2022-08-02T16:49:47;27.30;67.10
796;DHT22;381;48.770;9.188;2022-08-02T16:54:49;27.30;62.80
796;DHT22;381;48.770;9.188;2022-08-02T16:59:53;27.40;64.70
796;DHT22;381;48.770;9.188;2022-08-02T17:04:56;27.30;68.30
796;DHT22;381;48.770;9.188;2022-08-02T17:09:59;27.30;64.20
796;DHT22;381;48.770;9.188;2022-08-02T17:15:02;27.40;63.80
796;DHT22;381;48.770;9.188;2022-08-02T17:20:06;27.40;62.40
796;DHT22;381;48.770;9.188;2022-08-02T17:25:08;27.30;66.60
796;DHT22;381;48.770;9.188;2022-08-02T17:30:13;27.30;70.20
796;DHT22;381;48.770;9.188;2022-08-02T17:35:16;27.20;63.80
796;DHT22;381;48.770;9.188;2022-08-02T17:40:18;27.20;66.50
796;DHT22;381;48.770;9.188;2022-08-02T17:45:21;27.10;72.10
796;DHT22;381;48.770;9.188;2022-08-02T17:50:24;27.10;68.00
796;DHT22;381;48.770;9.188;2022-08-02T17:55:26;27.00;68.90
796;DHT22;381;48.770;9.188;2022-08-02T18:00:32;26.90;68.50
796;DHT22;381;48.770;9.188;2022-08-02T18:05:34;26.90;69.40
796;DHT22;381;48.770;9.188;2022-08-02T18:10:37;26.80;70.50
796;DHT22;381;48.770;9.188;2022-08-02T18:15:40;26.70;69.80
796;DHT22;381;48.770;9.188;2022-08-02T18:20:42;26.70;70.10
796;DHT22;381;48.770;9.188;2022-08-02T18:25:45;26.60;70.00
796;DHT22;381;48.770;9.188;2022-08-02T18:30:49;26.50;70.70
796;DHT22;381;48.770;9.188;2022-08-02T18:35:51;26.40;70.80
796;DHT22;381;48.770;9.188;2022-08-02T18:40:56;26.30;71.30
796;DHT22;381;48.770;9.188;2022-08-02T18:46:04;26.20;71.60
796;DHT22;381;48.770;9.188;2022-08-02T18:51:07;26.10;72.40
796;DHT22;381;48.770;9.188;2022-08-02T18:56:10;26.00;72.60
796;DHT22;381;48.770;9.188;2022-08-02T19:01:14;26.00;72.70
796;DHT22;381;48.770;9.188;2022-08-02T19:06:16;25.90;72.20
796;DHT22;381;48.770;9.188;2022-08-02T19:11:18;25.80;72.10
796;DHT22;381;48.770;9.188;2022-08-02T19:16:22;25.70;72.80
796;DHT22;381;48.770;9.188;2022-08-02T19:21:24;25.60;72.80
796;DHT22;381;48.770;9.188;2022-08-02T19:26:26;25.60;72.30
796;DHT22;381;48.770;9.188;2022-08-02T19:31:29;25.50;71.70
796;DHT22;381;48.770;9.188;2022-08-02T19:36:31;25.50;72.20
796;DHT22;381;48.770;9.188;2022-08-02T19:41:34;25.30;72.10
796;DHT22;381;48.770;9.188;2022-08-02T19:46:37;25.30;71.50
796;DHT22;381;48.770;9.188;2022-08-02T19:51:40;25.30;72.10
796;DHT22;381;48.770;9.188;2022-08-02T19:56:42;25.10;71.30
796;DHT22;381;48.770;9.188;2022-08-02T20:01:48;25.10;71.90
796;DHT22;381;48.770;9.188;2022-08-02T20:06:50;25.10;72.10
796;DHT22;381;48.770;9.188;2022-08-02T20:11:52;25.00;71.90
796;DHT22;381;48.770;9.188;2022-08-02T20:16:56;24.90;72.50
796;DHT22;381;48.770;9.188;2022-08-02T20:21:59;24.80;71.60
796;DHT22;381;48.770;9.188;2022-08-02T20:27:05;24.80;71.70
796;DHT22;381;48.770;9.188;2022-08-02T20:32:16;24.70;72.40
796;DHT22;381;48.770;9.188;2022-08-02T20:37:26;24.70;72.80
796;DHT22;381;48.770;9.188;2022-08-02T20:42:39;24.70;73.40
796;DHT22;381;48.770;9.188;2022-08-02T20:47:43;24.70;73.80
796;DHT22;381;48.770;9.188;2022-08-02T20:52:46;24.60;73.10
796;DHT22;381;48.770;9.188;2022-08-02T20:57:52;24.50;72.50
796;DHT22;381;48.770;9.188;2022-08-02T21:03:00;24.40;72.80
796;DHT22;381;48.770;9.188;2022-08-02T21:08:11;24.40;73.10
796;DHT22;381;48.770;9.188;2022-08-02T21:13:15;24.30;73.20
796;DHT22;381;48.770;9.188;2022-08-02T21:18:23;24.30;72.80
796;DHT22;381;48.770;9.188;2022-08-02T21:23:27;24.30;72.50
796;DHT22;381;48.770;9.188;2022-08-02T21:28:30;24.10;73.20
796;DHT22;381;48.770;9.188;2022-08-02T21:33:35;24.10;72.80
796;DHT22;381;48.770;9.188;2022-08-02T21:38:40;24.10;73.00
796;DHT22;381;48.770;9.188;2022-08-02T21:43:44;24.10;74.30
796;DHT22;381;48.770;9.188;2022-08-02T21:48:48;24.10;74.00
796;DHT22;381;48.770;9.188;2022-08-02T21:53:50;24.00;74.70
796;DHT22;381;48.770;9.188;2022-08-02T21:58:52;24.00;74.20
796;DHT22;381;48.770;9.188;2022-08-02T22:03:55;24.00;74.10
796;DHT22;381;48.770;9.188;2022-08-02T22:08:58;23.90;74.30
796;DHT22;381;48.770;9.188;2022-08-02T22:14:00;23.90;74.90
796;DHT22;381;48.770;9.188;2022-08-02T22:19:03;23.80;75.10
796;DHT22;381;48.770;9.188;2022-08-02T22:24:06;23.80;75.60
796;DHT22;381;48.770;9.188;2022-08-02T22:29:09;23.70;74.40
796;DHT22;381;48.770;9.188;2022-08-02T22:34:12;23.70;74.30
796;DHT22;381;48.770;9.188;2022-08-02T22:39:14;23.60;74.20
796;DHT22;381;48.770;9.188;2022-08-02T22:44:17;23.60;74.70
796;DHT22;381;48.770;9.188;2022-08-02T22:49:20;23.50;75.20
796;DHT22;381;48.770;9.188;2022-08-02T22:54:22;23.50;75.00
796;DHT22;381;48.770;9.188;2022-08-02T22:59:24;23.50;75.20
796;DHT22;381;48.770;9.188;2022-08-02T23:04:28;23.40;75.90
796;DHT22;381;48.770;9.188;2022-08-02T23:09:30;23.40;76.30
796;DHT22;381;48.770;9.188;2022-08-02T23:14:33;23.40;75.70
796;DHT22;381;48.770;9.188;2022-08-02T23:19:36;23.30;76.00
796;DHT22;381;48.770;9.188;2022-08-02T23:24:53;23.30;76.00
796;DHT22;381;48.770;9.188;2022-08-02T23:29:56;23.30;76.10
796;DHT22;381;48.770;9.188;2022-08-02T23:34:59;23.20;78.20
796;DHT22;381;48.770;9.188;2022-08-02T23:40:02;23.20;77.60
796;DHT22;381;48.770;9.188;2022-08-02T23:45:05;23.20;77.50
796;DHT22;381;48.770;9.188;2022-08-02T23:50:09;23.10;78.30
796;DHT22;381;48.770;9.188;2022-08-02T23:55:11;23.10;79.10
